Cantil, CA (93519)

10:30 AM PST on February 09, 2016 (GMT -0800)
FAR site | | Change Station
CLOSE
Current Station
Personal Weather Station
Location: Cantil, CA
Elevation: 2000 ft
Nearby Weather Stations

Elev 2000 ft 35.35 °N, 117.81 °W | Updated 2 minutes ago

Clear
Clear
55.6 °F
Feels Like 55.6 °F
N
1.0
Wind Variable Wind from SSW
Gusts 3.0 mph

Today
High -- | Low -- °F
--% Chance of Precip.
Yesterday
High -- | Low -- °F
Precip. -- in
Pressure 30.37 in
Visibility 10.0 miles
Clouds Clear
Dew Point 33 °F
Humidity 43%
Rainfall 0.00 in
Snow Depth Not available.
6:44 AM 5:27 PM
New Moon, 2% visible
METAR KMHV 091800Z AUTO 06004KT 10SM CLR 17/M02 A3037 RMK A01
Pressure 30.37 in
Visibility 10.0 miles
Clouds Clear
Dew Point 33 °F
Humidity 43%
Rainfall 0.00 in
Snow Depth Not available.
6:44 AM 5:27 PM
New Moon, 2% visible
METAR KMHV 091800Z AUTO 06004KT 10SM CLR 17/M02 A3037 RMK A01

10-Day Weather Forecast

Almanac

Astronomy

Feb. 09, 2016 Rise Set
Actual Time
Civil Twilight
Nautical Twilight
Astronomical Twilight
Moon
Length of Visible Light
Length of Day
Tomorrow will be .
, % of the Moon is Illuminated

Today's Extremes

State Highs State Lows

Community

WunderPhotos

Upload Photos

1,891,655 photos uploaded!

WunderBlog® & News

Nearby

Air Quality

  Air Quality AQ Index Pollutant
Not available.

Snow Depth

Station Depth Elevation

Earthquake Activity

City Distance Mag. Time & Date
Minimum magnitude displayed is 2.5.

Coastal Water Temperatures

Place Temperature

Stations

Nearby Weather Stations

Station Location Temp. Windchill Dew Point Humidity Wind Precip. Elev Updated Type
                   

Watches & Warnings

There are currently no watches in effect.